createdAt,value
2019-05-16T00:00:20.496Z,0.00
2019-05-16T00:01:20.559Z,0.00
2019-05-16T00:02:20.623Z,0.00
2019-05-16T00:03:20.690Z,0.00
2019-05-16T00:04:20.751Z,0.00
2019-05-16T00:05:20.810Z,0.00
2019-05-16T00:06:20.870Z,0.00
2019-05-16T00:07:20.931Z,0.00
2019-05-16T00:08:20.999Z,0.00
2019-05-16T00:09:21.062Z,0.00
2019-05-16T00:10:21.115Z,0.00
2019-05-16T00:11:21.178Z,0.00
2019-05-16T00:12:21.240Z,0.00
2019-05-16T00:13:21.303Z,0.00
2019-05-16T00:14:21.462Z,0.00
2019-05-16T00:15:21.422Z,0.00
2019-05-16T00:16:21.487Z,0.00
2019-05-16T00:17:21.551Z,0.00
2019-05-16T00:18:21.611Z,0.00
2019-05-16T00:19:21.679Z,0.00
2019-05-16T00:20:21.744Z,0.00
2019-05-16T00:21:21.796Z,0.00
2019-05-16T00:22:21.864Z,0.00
2019-05-16T00:23:21.919Z,0.00
2019-05-16T00:24:21.987Z,0.00
2019-05-16T00:25:22.052Z,0.00
2019-05-16T00:26:22.111Z,0.00
2019-05-16T00:27:22.167Z,0.00
2019-05-16T00:28:22.228Z,0.00
2019-05-16T00:29:22.395Z,0.00
2019-05-16T00:30:22.356Z,0.00
2019-05-16T00:31:22.416Z,0.00
2019-05-16T00:32:22.476Z,0.00
2019-05-16T00:33:22.541Z,0.00
2019-05-16T00:34:22.608Z,0.00
2019-05-16T00:35:22.667Z,0.00
2019-05-16T00:36:22.726Z,0.00
2019-05-16T00:37:23.197Z,0.00
2019-05-16T00:38:22.848Z,0.00
2019-05-16T00:39:22.916Z,0.00
2019-05-16T00:40:22.980Z,0.00
2019-05-16T00:41:23.036Z,0.00
2019-05-16T00:42:23.096Z,0.00
2019-05-16T00:43:23.156Z,0.00
2019-05-16T00:44:23.322Z,0.00
2019-05-16T00:45:23.281Z,0.00
2019-05-16T00:46:23.344Z,0.00
2019-05-16T00:47:23.405Z,0.00
2019-05-16T00:48:23.469Z,0.00
2019-05-16T00:49:23.538Z,0.00
2019-05-16T00:50:23.600Z,0.00
2019-05-16T00:51:23.653Z,0.00
2019-05-16T00:52:23.720Z,0.00
2019-05-16T00:53:23.776Z,0.00
2019-05-16T00:54:23.849Z,0.00
2019-05-16T00:55:23.911Z,0.00
2019-05-16T00:56:23.971Z,0.00
2019-05-16T00:57:24.026Z,0.00
2019-05-16T00:58:24.089Z,0.00
2019-05-16T00:59:24.165Z,0.00
2019-05-16T01:00:24.209Z,0.00
2019-05-16T01:01:24.274Z,0.00
2019-05-16T01:02:24.337Z,0.00
2019-05-16T01:03:24.398Z,0.00
2019-05-16T01:04:24.466Z,0.00
2019-05-16T01:05:24.526Z,0.00
2019-05-16T01:06:24.586Z,0.00
2019-05-16T01:07:24.651Z,0.00
2019-05-16T01:08:24.705Z,0.00
2019-05-16T01:09:24.773Z,0.00
2019-05-16T01:10:24.838Z,0.00
2019-05-16T01:11:24.889Z,0.00
2019-05-16T01:12:24.954Z,0.00
2019-05-16T01:13:25.013Z,0.00
2019-05-16T01:14:25.101Z,0.00
2019-05-16T01:15:25.138Z,0.00
2019-05-16T01:16:25.208Z,0.00
2019-05-16T01:17:25.262Z,0.00
2019-05-16T01:18:25.328Z,0.00
2019-05-16T01:19:27.683Z,0.00
2019-05-16T01:20:25.456Z,0.00
2019-05-16T01:21:25.513Z,0.00
2019-05-16T01:22:25.576Z,0.00
2019-05-16T01:23:25.634Z,0.00
2019-05-16T01:24:25.702Z,0.00
2019-05-16T01:25:28.127Z,0.00
2019-05-16T01:26:25.823Z,0.00
2019-05-16T01:27:27.765Z,0.00
2019-05-16T01:28:28.278Z,0.00
2019-05-16T01:29:28.214Z,0.00
2019-05-16T01:30:28.548Z,0.00
2019-05-16T01:31:27.979Z,0.00
2019-05-16T01:32:26.190Z,0.00
2019-05-16T01:33:28.079Z,0.00
2019-05-16T01:34:28.336Z,0.00
2019-05-16T01:35:27.900Z,0.00
2019-05-16T01:36:36.650Z,0.00
2019-05-16T01:37:27.891Z,0.00
2019-05-16T01:38:28.533Z,0.00
2019-05-16T01:39:28.656Z,0.00
2019-05-16T01:40:28.066Z,0.00
2019-05-16T01:41:28.519Z,0.00
2019-05-16T01:42:27.894Z,0.00
2019-05-16T01:43:28.363Z,0.00
2019-05-16T01:44:28.700Z,0.00
2019-05-16T01:45:27.797Z,0.00
2019-05-16T01:46:28.481Z,0.00
2019-05-16T01:47:28.810Z,0.00
2019-05-16T01:48:29.237Z,0.00
2019-05-16T01:49:27.984Z,0.00
2019-05-16T01:50:28.362Z,0.00
2019-05-16T01:51:28.835Z,0.00
2019-05-16T01:52:29.110Z,0.00
2019-05-16T01:53:27.908Z,0.00
2019-05-16T01:54:28.309Z,0.00
2019-05-16T01:55:28.552Z,0.00
2019-05-16T01:56:28.097Z,0.00
2019-05-16T01:57:28.265Z,0.00
2019-05-16T01:58:29.021Z,0.00
2019-05-16T01:59:28.383Z,0.00
2019-05-16T02:00:37.133Z,0.00
2019-05-16T02:01:28.856Z,0.00
2019-05-16T02:02:28.928Z,0.00
2019-05-16T02:03:28.297Z,0.00
2019-05-16T02:04:28.759Z,0.00
2019-05-16T02:05:28.233Z,0.00
2019-05-16T02:06:28.799Z,0.00
2019-05-16T02:07:28.533Z,0.00
2019-05-16T02:08:28.717Z,0.00
2019-05-16T02:09:28.478Z,0.00
2019-05-16T02:10:28.545Z,0.00
2019-05-16T02:11:28.650Z,0.00
2019-05-16T02:12:28.669Z,0.00
2019-05-16T02:13:28.831Z,0.00
2019-05-16T02:14:28.790Z,0.00
2019-05-16T02:15:28.855Z,0.00
2019-05-16T02:16:28.909Z,0.00
2019-05-16T02:17:29.078Z,0.00
2019-05-16T02:18:29.111Z,0.00
2019-05-16T02:19:29.093Z,0.00
2019-05-16T02:20:29.158Z,0.00
2019-05-16T02:21:29.217Z,0.00
2019-05-16T02:22:29.377Z,0.00
2019-05-16T02:23:29.351Z,0.00
2019-05-16T02:24:29.402Z,0.00
2019-05-16T02:25:29.466Z,0.00
2019-05-16T02:26:29.526Z,0.00
2019-05-16T02:27:29.601Z,0.00
2019-05-16T02:28:36.109Z,0.00
2019-05-16T02:29:29.939Z,0.00
2019-05-16T02:30:31.524Z,0.00
2019-05-16T02:31:31.296Z,0.00
2019-05-16T02:32:31.271Z,0.00
2019-05-16T02:33:31.703Z,0.00
2019-05-16T02:34:30.793Z,0.00
2019-05-16T02:35:31.154Z,0.00
2019-05-16T02:36:31.396Z,0.00
2019-05-16T02:37:34.379Z,0.00
2019-05-16T02:38:31.743Z,0.00
2019-05-16T02:39:30.745Z,0.00
2019-05-16T02:40:31.307Z,0.00
2019-05-16T02:41:31.173Z,0.00
2019-05-16T02:42:31.234Z,0.00
2019-05-16T02:43:31.507Z,0.00
2019-05-16T02:44:31.737Z,0.00
2019-05-16T02:45:32.483Z,0.00
2019-05-16T02:46:30.955Z,0.00
2019-05-16T02:47:34.575Z,0.00
2019-05-16T02:48:34.749Z,0.00
2019-05-16T02:49:34.224Z,0.00
2019-05-16T02:50:31.759Z,0.00
2019-05-16T02:51:31.659Z,0.00
2019-05-16T02:52:31.818Z,0.00
2019-05-16T02:53:31.231Z,0.00
2019-05-16T02:54:31.717Z,0.00
2019-05-16T02:55:31.315Z,0.00
2019-05-16T02:56:31.919Z,0.00
2019-05-16T02:57:31.887Z,0.00
2019-05-16T02:58:31.516Z,0.00
2019-05-16T02:59:31.564Z,0.00
2019-05-16T03:00:31.624Z,0.00
2019-05-16T03:01:31.874Z,0.00
2019-05-16T03:02:31.756Z,0.00
2019-05-16T03:03:31.919Z,0.00
2019-05-16T03:04:31.871Z,0.00
2019-05-16T03:05:31.932Z,0.00
2019-05-16T03:06:32.276Z,0.00
2019-05-16T03:07:41.232Z,0.00
2019-05-16T03:08:32.290Z,0.00
2019-05-16T03:09:32.179Z,0.00
2019-05-16T03:10:32.244Z,0.00
2019-05-16T03:11:32.303Z,0.00
2019-05-16T03:12:32.372Z,0.00
2019-05-16T03:13:32.438Z,0.00
2019-05-16T03:14:32.488Z,0.00
2019-05-16T03:15:32.553Z,4.00
2019-05-16T03:16:32.638Z,4.00
2019-05-16T03:17:32.686Z,4.00
2019-05-16T03:18:32.750Z,0.00
2019-05-16T03:19:32.797Z,4.00
2019-05-16T03:20:32.866Z,4.00
2019-05-16T03:21:32.920Z,4.00
2019-05-16T03:22:32.989Z,4.00
2019-05-16T03:23:33.053Z,8.00
2019-05-16T03:24:33.108Z,4.00
2019-05-16T03:25:33.186Z,8.00
2019-05-16T03:26:33.237Z,8.00
2019-05-16T03:27:33.309Z,8.00
2019-05-16T03:28:33.353Z,8.00
2019-05-16T03:29:33.418Z,16.00
2019-05-16T03:30:35.604Z,16.00
2019-05-16T03:31:34.447Z,16.00
2019-05-16T03:32:34.662Z,16.00
2019-05-16T03:33:41.052Z,20.00
2019-05-16T03:34:34.752Z,24.00
2019-05-16T03:35:34.794Z,24.00
2019-05-16T03:36:34.784Z,24.00
2019-05-16T03:37:49.950Z,32.00
2019-05-16T03:38:33.982Z,32.00
2019-05-16T03:39:34.034Z,36.00
2019-05-16T03:40:34.106Z,36.00
2019-05-16T03:41:34.158Z,44.00
2019-05-16T03:42:34.401Z,48.00
2019-05-16T03:43:34.281Z,52.00
2019-05-16T03:44:34.345Z,52.00
2019-05-16T03:45:34.405Z,60.00
2019-05-16T03:46:34.470Z,64.00
2019-05-16T03:47:34.543Z,68.00
2019-05-16T03:48:34.598Z,76.00
2019-05-16T03:49:34.660Z,84.00
2019-05-16T03:50:34.731Z,96.00
2019-05-16T03:51:34.786Z,100.00
2019-05-16T03:52:38.858Z,108.00
2019-05-16T03:53:34.910Z,116.00
2019-05-16T03:54:34.965Z,124.00
2019-05-16T03:55:35.032Z,136.00
2019-05-16T03:56:35.089Z,148.00
2019-05-16T03:57:35.251Z,156.00
2019-05-16T03:58:35.214Z,160.00
2019-05-16T03:59:35.279Z,164.00
2019-05-16T04:00:35.336Z,164.00
2019-05-16T04:01:35.399Z,172.00
2019-05-16T04:02:35.467Z,188.00
2019-05-16T04:03:35.537Z,204.00
2019-05-16T04:04:35.586Z,220.00
2019-05-16T04:05:35.648Z,236.00
2019-05-16T04:06:35.711Z,244.00
2019-05-16T04:07:35.792Z,252.00
2019-05-16T04:08:35.839Z,268.00
2019-05-16T04:09:35.895Z,272.00
2019-05-16T04:10:35.955Z,268.00
2019-05-16T04:11:36.023Z,268.00
2019-05-16T04:12:36.186Z,268.00
2019-05-16T04:13:36.148Z,284.00
2019-05-16T04:14:36.204Z,308.00
2019-05-16T04:15:36.266Z,328.00
2019-05-16T04:16:36.327Z,344.00
2019-05-16T04:17:36.399Z,348.00
2019-05-16T04:18:36.460Z,344.00
2019-05-16T04:19:36.515Z,332.00
2019-05-16T04:20:36.588Z,324.00
2019-05-16T04:21:36.639Z,320.00
2019-05-16T04:22:36.712Z,328.00
2019-05-16T04:23:36.775Z,340.00
2019-05-16T04:24:36.823Z,352.00
2019-05-16T04:25:36.895Z,372.00
2019-05-16T04:26:37.125Z,396.00
2019-05-16T04:27:37.017Z,428.00
2019-05-16T04:28:37.079Z,468.00
2019-05-16T04:29:40.558Z,520.00
2019-05-16T04:30:37.195Z,572.00
2019-05-16T04:31:37.257Z,624.00
2019-05-16T04:32:37.497Z,680.00
2019-05-16T04:33:37.388Z,744.00
2019-05-16T04:34:37.444Z,804.00
2019-05-16T04:35:37.514Z,832.00
2019-05-16T04:36:40.456Z,848.00
2019-05-16T04:37:37.644Z,880.00
2019-05-16T04:38:42.867Z,912.00
2019-05-16T04:39:37.760Z,944.00
2019-05-16T04:40:38.521Z,984.00
2019-05-16T04:41:40.729Z,1012.00
2019-05-16T04:42:41.328Z,1028.00
2019-05-16T04:43:41.325Z,1036.00
2019-05-16T04:44:41.337Z,1060.00
2019-05-16T04:45:41.140Z,1092.00
2019-05-16T04:46:41.085Z,1124.00
2019-05-16T04:47:41.386Z,1164.00
2019-05-16T04:48:41.448Z,1196.00
2019-05-16T04:49:41.177Z,1212.00
2019-05-16T04:50:41.752Z,1224.00
2019-05-16T04:51:41.471Z,1232.00
2019-05-16T04:52:41.358Z,1244.00
2019-05-16T04:53:42.099Z,1280.00
2019-05-16T04:54:42.007Z,1332.00
2019-05-16T04:55:41.852Z,1416.00
2019-05-16T04:56:41.272Z,1548.00
2019-05-16T04:57:42.188Z,1688.00
2019-05-16T04:58:40.815Z,1804.00
2019-05-16T04:59:41.739Z,1928.00
2019-05-16T05:00:42.046Z,2060.00
2019-05-16T05:01:41.261Z,2176.00
2019-05-16T05:02:41.773Z,2280.00
2019-05-16T05:03:40.899Z,2396.00
2019-05-16T05:04:41.398Z,2496.00
2019-05-16T05:05:41.428Z,2580.00
2019-05-16T05:06:40.556Z,2644.00
2019-05-16T05:07:40.613Z,2672.00
2019-05-16T05:08:50.590Z,2656.00
2019-05-16T05:09:40.845Z,2644.00
2019-05-16T05:10:40.662Z,2644.00
2019-05-16T05:11:41.283Z,2660.00
2019-05-16T05:12:40.781Z,2700.00
2019-05-16T05:13:41.265Z,2756.00
2019-05-16T05:14:41.568Z,2788.00
2019-05-16T05:15:40.211Z,2796.00
2019-05-16T05:16:41.291Z,2780.00
2019-05-16T05:17:41.274Z,2776.00
2019-05-16T05:18:40.875Z,2760.00
2019-05-16T05:19:41.467Z,2712.00
2019-05-16T05:20:41.000Z,2680.00
2019-05-16T05:21:41.033Z,2664.00
2019-05-16T05:22:40.438Z,2660.00
2019-05-16T05:23:40.810Z,2608.00
2019-05-16T05:24:40.760Z,2536.00
2019-05-16T05:25:40.622Z,2472.00
2019-05-16T05:26:41.530Z,2416.00
2019-05-16T05:27:41.394Z,2388.00
2019-05-16T05:28:40.816Z,2416.00
2019-05-16T05:29:41.079Z,2528.00
2019-05-16T05:30:40.931Z,2624.00
2019-05-16T05:31:44.962Z,2688.00
2019-05-16T05:32:41.470Z,2772.00
2019-05-16T05:33:41.776Z,2876.00
2019-05-16T05:34:41.180Z,2956.00
2019-05-16T05:35:41.250Z,3060.00
2019-05-16T05:36:41.304Z,3136.00
2019-05-16T05:37:41.375Z,3140.00
2019-05-16T05:38:41.439Z,3132.00
2019-05-16T05:39:41.491Z,3148.00
2019-05-16T05:40:41.558Z,3168.00
2019-05-16T05:41:41.611Z,3216.00
2019-05-16T05:42:41.687Z,3264.00
2019-05-16T05:43:41.748Z,3300.00
2019-05-16T05:44:41.801Z,3348.00
2019-05-16T05:45:41.863Z,3420.00
2019-05-16T05:46:41.925Z,3488.00
2019-05-16T05:47:41.995Z,3612.00
2019-05-16T05:48:42.055Z,3756.00
2019-05-16T05:49:42.111Z,3888.00
2019-05-16T05:50:42.175Z,3972.00
2019-05-16T05:51:42.239Z,3988.00
2019-05-16T05:52:42.305Z,3944.00
2019-05-16T05:53:42.476Z,4032.00
2019-05-16T05:54:42.427Z,4200.00
2019-05-16T05:55:42.485Z,4372.00
2019-05-16T05:56:42.557Z,4512.00
2019-05-16T05:57:42.616Z,4648.00
2019-05-16T05:58:42.681Z,4780.00
2019-05-16T05:59:42.748Z,4856.00
2019-05-16T06:00:42.807Z,4844.00
2019-05-16T06:01:42.860Z,4800.00
2019-05-16T06:02:42.924Z,4788.00
2019-05-16T06:03:43.012Z,4708.00
2019-05-16T06:04:43.064Z,4560.00
2019-05-16T06:05:43.113Z,4400.00
2019-05-16T06:06:45.074Z,4184.00
2019-05-16T06:07:43.236Z,3948.00
2019-05-16T06:08:43.307Z,3736.00
2019-05-16T06:09:53.503Z,3548.00
2019-05-16T06:10:43.424Z,3488.00
2019-05-16T06:11:43.485Z,3608.00
2019-05-16T06:12:43.549Z,3756.00
2019-05-16T06:13:43.613Z,3908.00
2019-05-16T06:14:43.685Z,3896.00
2019-05-16T06:15:43.744Z,3776.00
2019-05-16T06:16:43.801Z,3600.00
2019-05-16T06:17:43.864Z,3432.00
2019-05-16T06:18:43.929Z,3300.00
2019-05-16T06:19:43.996Z,3200.00
2019-05-16T06:20:44.061Z,3104.00
2019-05-16T06:21:45.372Z,3004.00
2019-05-16T06:22:44.174Z,2896.00
2019-05-16T06:23:44.241Z,2828.00
2019-05-16T06:24:44.305Z,2860.00
2019-05-16T06:25:44.453Z,3000.00
2019-05-16T06:26:44.437Z,3208.00
2019-05-16T06:27:44.494Z,3464.00
2019-05-16T06:28:44.558Z,3632.00
2019-05-16T06:29:44.619Z,3764.00
2019-05-16T06:30:44.690Z,3840.00
2019-05-16T06:31:44.754Z,4336.00
2019-05-16T06:32:44.817Z,4876.00
2019-05-16T06:33:44.878Z,4484.00
2019-05-16T06:34:44.933Z,4620.00
2019-05-16T06:35:45.005Z,4736.00
2019-05-16T06:36:45.070Z,4908.00
2019-05-16T06:37:45.126Z,5164.00
2019-05-16T06:38:45.188Z,5484.00
2019-05-16T06:39:45.578Z,5756.00
2019-05-16T06:40:45.326Z,5936.00
2019-05-16T06:41:45.378Z,6248.00
2019-05-16T06:42:45.438Z,6504.00
2019-05-16T06:43:45.502Z,7164.00
2019-05-16T06:44:45.566Z,22848.00
2019-05-16T06:45:45.638Z,12400.00
2019-05-16T06:47:00.109Z,11464.00
2019-05-16T06:47:45.754Z,12016.00
2019-05-16T06:48:45.821Z,12552.00
2019-05-16T06:49:45.882Z,20416.00
2019-05-16T06:50:45.956Z,14540.00
2019-05-16T06:51:46.025Z,12904.00
2019-05-16T06:52:46.075Z,12720.00
2019-05-16T06:53:46.138Z,13360.00
2019-05-16T06:54:46.207Z,12360.00
2019-05-16T06:55:46.270Z,13612.00
2019-05-16T06:56:46.431Z,19808.00
2019-05-16T06:57:46.691Z,14148.00
2019-05-16T06:58:51.016Z,13040.00
2019-05-16T06:59:46.527Z,9956.00
2019-05-16T07:00:46.599Z,12664.00
2019-05-16T07:01:46.663Z,7136.00
2019-05-16T07:02:46.730Z,6192.00
2019-05-16T07:03:46.788Z,5760.00
2019-05-16T07:04:46.851Z,5700.00
2019-05-16T07:05:46.919Z,5780.00
2019-05-16T07:06:58.066Z,5848.00
2019-05-16T07:07:47.051Z,5796.00
2019-05-16T07:08:47.111Z,5740.00
2019-05-16T07:09:58.051Z,5540.00
2019-05-16T07:10:47.243Z,5264.00
2019-05-16T07:11:47.408Z,5124.00
2019-05-16T07:12:47.368Z,4812.00
2019-05-16T07:13:47.433Z,4508.00
2019-05-16T07:14:50.317Z,4276.00
2019-05-16T07:15:49.771Z,4092.00
2019-05-16T07:16:49.638Z,3984.00
2019-05-16T07:17:47.699Z,3948.00
2019-05-16T07:18:50.410Z,3980.00
2019-05-16T07:19:50.162Z,4048.00
2019-05-16T07:20:47.884Z,4032.00
2019-05-16T07:21:50.659Z,4024.00
2019-05-16T07:22:50.370Z,4008.00
2019-05-16T07:23:48.080Z,4024.00
2019-05-16T07:24:50.312Z,4060.00
2019-05-16T07:25:50.347Z,4092.00
2019-05-16T07:26:50.006Z,4044.00
2019-05-16T07:27:50.754Z,3980.00
2019-05-16T07:28:48.396Z,3892.00
2019-05-16T07:29:50.644Z,3780.00
2019-05-16T07:30:50.060Z,3672.00
2019-05-16T07:31:48.597Z,3552.00
2019-05-16T07:32:50.007Z,3428.00
2019-05-16T07:33:50.271Z,3296.00
2019-05-16T07:34:49.872Z,3152.00
2019-05-16T07:35:51.184Z,3048.00
2019-05-16T07:36:50.238Z,2972.00
2019-05-16T07:37:49.983Z,2884.00
2019-05-16T07:38:50.674Z,2772.00
2019-05-16T07:39:51.200Z,2688.00
2019-05-16T07:40:51.263Z,2660.00
2019-05-16T07:41:50.825Z,2652.00
2019-05-16T07:42:51.046Z,2720.00
2019-05-16T07:43:50.604Z,2804.00
2019-05-16T07:44:50.557Z,2848.00
2019-05-16T07:45:51.266Z,2852.00
2019-05-16T07:46:51.574Z,2824.00
2019-05-16T07:47:51.008Z,2788.00
2019-05-16T07:48:51.830Z,2744.00
2019-05-16T07:49:50.206Z,2740.00
2019-05-16T07:50:50.161Z,2760.00
2019-05-16T07:51:49.993Z,2808.00
2019-05-16T07:52:51.118Z,2888.00
2019-05-16T07:53:50.636Z,3060.00
2019-05-16T07:54:50.741Z,3304.00
2019-05-16T07:55:50.912Z,3556.00
2019-05-16T07:56:59.493Z,3820.00
2019-05-16T07:57:50.757Z,4096.00
2019-05-16T07:58:50.885Z,4360.00
2019-05-16T07:59:50.789Z,4460.00
2019-05-16T08:01:02.010Z,4536.00
2019-05-16T08:01:53.901Z,4636.00
2019-05-16T08:02:50.744Z,4784.00
2019-05-16T08:03:51.067Z,4828.00
2019-05-16T08:04:50.735Z,4828.00
2019-05-16T08:05:51.657Z,4800.00
2019-05-16T08:06:50.839Z,4780.00
2019-05-16T08:07:51.502Z,4536.00
2019-05-16T08:08:51.331Z,4256.00
2019-05-16T08:09:51.023Z,3920.00
2019-05-16T08:10:51.401Z,3644.00
2019-05-16T08:11:51.183Z,3420.00
2019-05-16T08:12:51.562Z,3228.00
2019-05-16T08:13:51.279Z,3016.00
2019-05-16T08:14:51.345Z,2856.00
2019-05-16T08:15:51.404Z,2764.00
2019-05-16T08:16:51.475Z,2748.00
2019-05-16T08:17:51.539Z,2800.00
2019-05-16T08:18:51.599Z,2908.00
2019-05-16T08:19:51.659Z,3024.00
2019-05-16T08:20:52.781Z,3100.00
2019-05-16T08:21:51.802Z,3088.00
2019-05-16T08:22:51.861Z,2972.00
2019-05-16T08:23:51.954Z,2832.00
2019-05-16T08:24:51.981Z,2728.00
2019-05-16T08:25:52.044Z,2632.00
2019-05-16T08:26:52.128Z,2532.00
2019-05-16T08:27:52.300Z,2456.00
2019-05-16T08:28:52.237Z,2416.00
2019-05-16T08:29:52.299Z,2388.00
2019-05-16T08:30:53.078Z,2364.00
2019-05-16T08:31:53.034Z,2320.00
2019-05-16T08:32:53.093Z,2288.00
2019-05-16T08:33:54.939Z,2296.00
2019-05-16T08:34:52.619Z,2368.00
2019-05-16T08:35:52.680Z,2488.00
2019-05-16T08:36:52.753Z,2636.00
2019-05-16T08:37:52.823Z,2744.00
2019-05-16T08:38:52.874Z,2804.00
2019-05-16T08:39:52.936Z,2804.00
2019-05-16T08:41:12.914Z,2764.00
2019-05-16T08:41:53.156Z,2712.00
2019-05-16T08:42:53.129Z,2668.00
2019-05-16T08:43:53.754Z,2600.00
2019-05-16T08:44:53.252Z,2484.00
2019-05-16T08:45:53.316Z,2344.00
2019-05-16T08:47:53.462Z,2208.00
2019-05-16T08:49:53.574Z,2144.00
2019-05-16T08:50:09.657Z,2176.00
2019-05-16T08:50:11.776Z,2264.00
2019-05-16T08:50:55.137Z,2096.00
2019-05-16T08:51:53.706Z,2012.00
2019-05-16T08:52:53.769Z,1908.00
2019-05-16T08:53:53.826Z,1816.00
2019-05-16T08:54:53.893Z,1740.00
2019-05-16T08:55:53.954Z,1704.00
2019-05-16T08:56:54.060Z,1720.00
2019-05-16T08:57:54.087Z,1760.00
2019-05-16T08:58:54.349Z,1784.00
2019-05-16T08:59:54.205Z,1792.00
2019-05-16T09:00:55.786Z,1796.00
2019-05-16T09:01:58.123Z,1796.00
2019-05-16T09:02:54.393Z,1832.00
2019-05-16T09:03:54.457Z,1924.00
2019-05-16T09:04:54.521Z,2060.00
2019-05-16T09:05:54.589Z,2228.00
2019-05-16T09:06:54.661Z,2432.00
2019-05-16T09:08:00.675Z,2628.00
2019-05-16T09:08:58.498Z,2836.00
2019-05-16T09:09:59.853Z,3084.00
2019-05-16T09:11:01.602Z,3392.00
2019-05-16T09:11:57.428Z,3716.00
2019-05-16T09:12:57.258Z,3968.00
2019-05-16T09:13:57.252Z,4192.00
2019-05-16T09:14:59.086Z,4380.00
2019-05-16T09:15:57.093Z,4556.00
2019-05-16T09:16:57.970Z,4740.00
2019-05-16T09:17:57.912Z,5060.00
2019-05-16T09:18:57.602Z,5548.00
2019-05-16T09:19:57.529Z,6160.00
2019-05-16T09:20:57.803Z,6728.00
2019-05-16T09:21:58.038Z,7244.00
2019-05-16T09:22:57.841Z,7664.00
2019-05-16T09:23:57.820Z,8096.00
2019-05-16T09:24:57.669Z,8396.00
2019-05-16T09:25:58.416Z,8488.00
2019-05-16T09:26:57.890Z,8472.00
2019-05-16T09:27:56.954Z,8504.00
2019-05-16T09:28:57.015Z,8508.00
2019-05-16T09:29:56.847Z,8536.00
2019-05-16T09:30:57.725Z,8336.00
2019-05-16T09:32:15.731Z,8192.00
2019-05-16T09:32:58.709Z,8168.00
2019-05-16T09:33:56.852Z,7800.00
2019-05-16T09:34:57.318Z,7076.00
2019-05-16T09:35:57.575Z,6616.00
2019-05-16T09:37:00.615Z,6192.00
2019-05-16T09:37:57.565Z,5932.00
2019-05-16T09:38:57.769Z,5236.00
2019-05-16T09:39:57.286Z,4748.00
2019-05-16T09:40:57.209Z,4392.00
2019-05-16T09:41:58.773Z,4120.00
2019-05-16T09:42:56.989Z,3924.00
2019-05-16T09:43:58.879Z,3788.00
2019-05-16T09:44:57.901Z,3716.00
2019-05-16T09:46:03.460Z,3656.00
2019-05-16T09:46:57.224Z,3644.00
2019-05-16T09:47:57.538Z,3696.00
2019-05-16T09:49:18.934Z,3816.00
2019-05-16T09:49:58.039Z,4004.00
2019-05-16T09:50:57.880Z,4176.00
2019-05-16T09:51:57.523Z,4260.00
2019-05-16T09:52:57.587Z,4288.00
2019-05-16T09:53:57.649Z,4312.00
2019-05-16T09:54:57.937Z,4316.00
2019-05-16T09:55:57.811Z,4316.00
2019-05-16T09:56:57.854Z,4320.00
2019-05-16T09:57:58.542Z,4280.00
2019-05-16T09:58:57.968Z,4280.00
2019-05-16T09:59:58.027Z,4368.00
2019-05-16T10:00:58.092Z,4580.00
2019-05-16T10:01:58.348Z,4748.00
2019-05-16T10:02:58.227Z,4884.00
2019-05-16T10:03:58.288Z,5076.00
2019-05-16T10:04:58.375Z,5264.00
2019-05-16T10:05:58.424Z,5404.00
2019-05-16T10:06:58.488Z,5440.00
2019-05-16T10:07:58.580Z,5628.00
2019-05-16T10:08:58.608Z,6172.00
2019-05-16T10:09:58.673Z,6852.00
2019-05-16T10:10:58.738Z,7428.00
2019-05-16T10:12:08.208Z,7712.00
2019-05-16T10:12:58.885Z,7616.00
2019-05-16T10:13:58.937Z,7440.00
2019-05-16T10:14:59.809Z,7436.00
2019-05-16T10:15:59.057Z,7564.00
2019-05-16T10:16:59.308Z,7744.00
2019-05-16T10:17:59.205Z,7948.00
2019-05-16T10:18:59.249Z,8152.00
2019-05-16T10:20:00.195Z,8308.00
2019-05-16T10:20:59.448Z,8484.00
2019-05-16T10:22:00.348Z,8632.00
2019-05-16T10:22:59.537Z,8700.00
2019-05-16T10:23:59.573Z,8732.00
2019-05-16T10:24:59.642Z,9124.00
2019-05-16T10:25:59.707Z,9576.00
2019-05-16T10:26:59.781Z,9492.00
2019-05-16T10:27:59.837Z,9440.00
2019-05-16T10:28:59.897Z,9624.00
2019-05-16T10:30:01.166Z,9520.00
2019-05-16T10:31:00.031Z,9392.00
2019-05-16T10:32:00.113Z,8892.00
2019-05-16T10:33:01.022Z,8680.00
2019-05-16T10:34:00.231Z,8688.00
2019-05-16T10:35:00.295Z,8668.00
2019-05-16T10:36:00.361Z,8620.00
2019-05-16T10:37:00.430Z,8748.00
2019-05-16T10:38:00.494Z,8776.00
2019-05-16T10:39:00.554Z,9528.00
2019-05-16T10:40:00.618Z,8916.00
2019-05-16T10:41:00.688Z,9440.00
2019-05-16T10:42:00.864Z,9352.00
2019-05-16T10:43:00.835Z,9296.00
2019-05-16T10:44:00.886Z,9540.00
2019-05-16T10:45:00.955Z,9024.00
2019-05-16T10:46:01.013Z,8608.00
2019-05-16T10:47:01.166Z,8412.00
2019-05-16T10:48:01.147Z,9504.00
2019-05-16T10:49:01.215Z,8676.00
2019-05-16T10:50:01.279Z,9672.00
2019-05-16T10:51:01.348Z,9996.00
2019-05-16T10:52:01.419Z,10644.00
2019-05-16T10:53:22.685Z,7844.00
2019-05-16T10:54:09.414Z,6932.00
2019-05-16T10:55:02.584Z,6872.00
2019-05-16T10:56:01.715Z,6144.00
2019-05-16T10:57:01.830Z,5824.00
2019-05-16T10:58:01.824Z,5808.00
2019-05-16T10:59:45.888Z,7668.00
2019-05-16T11:00:12.518Z,7668.00
2019-05-16T11:01:19.407Z,5312.00
2019-05-16T11:02:02.139Z,7236.00
2019-05-16T11:03:02.179Z,7012.00
2019-05-16T11:04:02.203Z,6936.00
2019-05-16T11:05:21.710Z,6764.00
2019-05-16T11:06:06.019Z,7036.00
2019-05-16T11:07:02.412Z,7120.00
2019-05-16T11:08:02.671Z,7204.00
2019-05-16T11:09:02.535Z,7256.00
2019-05-16T11:10:03.660Z,6884.00
2019-05-16T11:11:02.667Z,6988.00
2019-05-16T11:12:02.741Z,7344.00
2019-05-16T11:13:02.808Z,7400.00
2019-05-16T11:14:02.863Z,6824.00
2019-05-16T11:15:02.938Z,6932.00
2019-05-16T11:16:03.000Z,7420.00
2019-05-16T11:17:03.071Z,7380.00
2019-05-16T11:18:03.137Z,5144.00
2019-05-16T11:19:14.435Z,6972.00
2019-05-16T11:20:03.296Z,7092.00
2019-05-16T11:21:03.456Z,7228.00
2019-05-16T11:22:03.422Z,7200.00
2019-05-16T11:23:03.501Z,6216.00
2019-05-16T11:24:03.774Z,4956.00
2019-05-16T11:25:16.380Z,4688.00
2019-05-16T11:26:03.666Z,6288.00
2019-05-16T11:27:03.737Z,7036.00
2019-05-16T11:28:03.804Z,6060.00
2019-05-16T11:29:03.861Z,4916.00
2019-05-16T11:30:03.924Z,5740.00
2019-05-16T11:31:04.192Z,5964.00
2019-05-16T11:32:06.554Z,7364.00
2019-05-16T11:33:04.133Z,7404.00
2019-05-16T11:34:04.194Z,7056.00
2019-05-16T11:35:04.257Z,5820.00
2019-05-16T11:36:07.411Z,6084.00
2019-05-16T11:37:06.649Z,5572.00
2019-05-16T11:38:07.181Z,6192.00
2019-05-16T11:39:04.527Z,6548.00
2019-05-16T11:40:06.645Z,6468.00
2019-05-16T11:41:07.217Z,6384.00
2019-05-16T11:42:04.728Z,6340.00
2019-05-16T11:43:11.368Z,6316.00
2019-05-16T11:44:06.603Z,6284.00
2019-05-16T11:45:08.709Z,6204.00
2019-05-16T11:46:04.986Z,6144.00
2019-05-16T11:47:07.923Z,6116.00
2019-05-16T11:48:05.142Z,6100.00
2019-05-16T11:49:05.184Z,5948.00
2019-05-16T11:50:07.372Z,6032.00
2019-05-16T11:51:07.002Z,6280.00
2019-05-16T11:52:07.341Z,6724.00
2019-05-16T11:53:07.298Z,7092.00
2019-05-16T11:54:06.930Z,7572.00
2019-05-16T11:55:07.428Z,8152.00
2019-05-16T11:56:08.187Z,8800.00
2019-05-16T11:57:06.987Z,9436.00
2019-05-16T11:58:06.794Z,9992.00
2019-05-16T11:59:07.831Z,9644.00
2019-05-16T12:00:07.972Z,9112.00
2019-05-16T12:01:07.539Z,7952.00
2019-05-16T12:02:06.050Z,8496.00
2019-05-16T12:03:06.119Z,7828.00
2019-05-16T12:04:07.991Z,7264.00
2019-05-16T12:05:06.245Z,7000.00
2019-05-16T12:06:10.498Z,6772.00
2019-05-16T12:07:07.622Z,6624.00
2019-05-16T12:08:07.745Z,6532.00
2019-05-16T12:09:06.803Z,6480.00
2019-05-16T12:10:07.576Z,6536.00
2019-05-16T12:11:07.020Z,6736.00
2019-05-16T12:12:08.708Z,6960.00
2019-05-16T12:13:07.649Z,7400.00
2019-05-16T12:14:07.301Z,7388.00
2019-05-16T12:15:07.827Z,7348.00
2019-05-16T12:16:07.762Z,7448.00
2019-05-16T12:17:07.550Z,7716.00
2019-05-16T12:18:08.514Z,7588.00
2019-05-16T12:19:07.221Z,7540.00
2019-05-16T12:20:08.013Z,7616.00
2019-05-16T12:21:07.746Z,7104.00
2019-05-16T12:22:07.382Z,6856.00
2019-05-16T12:23:08.104Z,6644.00
2019-05-16T12:24:07.587Z,6516.00
2019-05-16T12:25:08.327Z,6500.00
2019-05-16T12:26:08.046Z,6524.00
2019-05-16T12:27:08.456Z,6572.00
2019-05-16T12:28:08.293Z,6740.00